Time;durP1;ratioP1;P1;durP2;ratioP2;P2;SDS_P1;SDS_P2;PMS_P1;PMS_P2;Temp;Humidity;BMP_temperature;BMP_pressure;BME280_temperature;BME280_humidity;BME280_pressure;Samples;Min_cycle;Max_cycle;Signal;HPM_P1;HPM_P2
2023/07/25 00:00:41;;;;;;;5.93;4.82;;;12.60;1.00;13.60;93292.00;;;;7397036;19;20147;-76
2023/07/25 00:03:09;;;;;;;7.50;5.13;;;12.60;1.00;13.50;93299.00;;;;7393699;19;20184;-76
2023/07/25 00:05:42;;;;;;;10.27;5.95;;;12.60;1.00;13.60;93294.00;;;;7394934;19;20170;-77
2023/07/25 00:08:10;;;;;;;12.05;5.55;;;12.50;1.00;13.70;93278.00;;;;7396882;19;20140;-76
2023/07/25 00:10:39;;;;;;;11.48;5.75;;;12.60;1.00;13.80;93302.00;;;;7396953;19;20164;-78
2023/07/25 00:13:12;;;;;;;9.98;5.90;;;12.70;1.00;13.80;93292.00;;;;7397153;19;20175;-78
2023/07/25 00:15:54;;;;;;;7.97;5.47;;;12.80;1.00;13.80;93269.00;;;;7395092;19;20170;-76
2023/07/25 00:18:30;;;;;;;11.80;5.78;;;12.80;1.00;13.90;93260.00;;;;7398547;19;20223;-77
2023/07/25 00:21:03;;;;;;;7.88;4.68;;;12.90;1.00;13.90;93282.00;;;;7395858;19;20223;-77
2023/07/25 00:23:38;;;;;;;8.48;5.85;;;12.80;1.00;13.90;93285.00;;;;7396228;19;20165;-76
2023/07/25 00:26:05;;;;;;;8.13;5.40;;;12.90;1.00;13.90;93258.00;;;;7395527;19;20161;-77
2023/07/25 00:28:39;;;;;;;10.20;5.43;;;12.90;1.00;13.90;93267.00;;;;7395221;19;20169;-77
2023/07/25 00:31:07;;;;;;;11.02;5.30;;;12.80;1.00;13.90;93268.00;;;;7380864;19;20151;-77
2023/07/25 00:33:44;;;;;;;9.82;5.22;;;12.80;1.00;13.70;93265.00;;;;7396448;19;20488;-76
2023/07/25 00:36:11;;;;;;;8.60;5.05;;;12.80;17.10;13.70;93270.00;;;;7394641;19;20598;-77
2023/07/25 00:38:45;;;;;;;9.00;4.93;;;12.70;41.70;13.80;93236.00;;;;7396051;19;20141;-77
2023/07/25 00:41:13;;;;;;;10.52;5.50;;;12.70;63.90;13.80;93271.00;;;;7396227;19;20146;-77
2023/07/25 00:43:48;;;;;;;8.57;5.50;;;12.70;62.40;13.80;93260.00;;;;7394510;19;20208;-75
2023/07/25 00:46:17;;;;;;;15.07;4.97;;;12.80;95.90;13.70;93239.00;;;;7392999;19;20134;-78
2023/07/25 00:48:45;;;;;;;6.97;5.35;;;12.70;99.90;13.70;93252.00;;;;7396411;19;20196;-78
2023/07/25 00:51:21;;;;;;;11.45;5.25;;;12.70;99.90;13.50;93258.00;;;;7395141;19;20165;-81
2023/07/25 00:53:49;;;;;;;11.18;5.13;;;12.60;99.90;13.50;93256.00;;;;7394781;19;20147;-77
2023/07/25 00:56:24;;;;;;;8.95;5.25;;;12.60;99.90;13.60;93256.00;;;;7395257;19;20136;-75
2023/07/25 00:58:51;;;;;;;6.72;4.85;;;12.60;99.90;13.50;93238.00;;;;7396758;19;20151;-77
2023/07/25 01:01:27;;;;;;;11.07;5.68;;;12.60;99.90;13.70;93247.00;;;;7396189;19;20625;-76
2023/07/25 01:03:56;;;;;;;9.23;5.45;;;12.60;99.90;13.60;93240.00;;;;7395153;19;20507;-79
2023/07/25 01:06:31;;;;;;;9.07;5.18;;;12.60;99.90;13.80;93244.00;;;;7394467;19;20136;-78
2023/07/25 01:09:06;;;;;;;9.93;5.53;;;12.60;99.90;13.70;93213.00;;;;7394813;19;20152;-78
2023/07/25 01:11:33;;;;;;;12.30;5.82;;;12.70;99.90;13.60;93235.00;;;;7395415;19;20137;-77
2023/07/25 01:14:14;;;;;;;9.23;5.82;;;12.70;99.90;13.60;93200.00;;;;7392898;19;20169;-76
2023/07/25 01:16:42;;;;;;;10.48;5.88;;;12.60;99.90;13.60;93240.00;;;;7390489;19;20200;-77
2023/07/25 01:19:20;;;;;;;12.48;5.55;;;12.60;99.90;13.80;93228.00;;;;7392564;19;20483;-79
2023/07/25 01:21:53;;;;;;;8.82;5.88;;;12.70;99.90;13.80;93234.00;;;;7396535;19;20128;-76
2023/07/25 01:24:27;;;;;;;8.40;5.32;;;12.80;99.90;13.70;93188.00;;;;7393333;19;20535;-77
2023/07/25 01:27:02;;;;;;;10.30;5.43;;;12.70;99.90;13.60;93200.00;;;;7394017;19;20500;-78
2023/07/25 01:29:36;;;;;;;10.77;5.78;;;12.70;99.90;13.60;93225.00;;;;7393730;19;20173;-76
2023/07/25 01:32:04;;;;;;;10.98;5.15;;;12.70;99.90;13.40;93221.00;;;;7394160;19;20616;-77
2023/07/25 01:34:39;;;;;;;13.15;5.43;;;12.60;99.90;13.50;93193.00;;;;7393239;19;20498;-77
2023/07/25 01:37:08;;;;;;;10.05;5.07;;;12.60;99.90;13.60;93207.00;;;;7395580;19;20147;-77
2023/07/25 01:39:43;;;;;;;7.90;5.40;;;12.60;99.90;13.50;93204.00;;;;7393467;19;20169;-76
2023/07/25 01:42:18;;;;;;;12.05;5.78;;;12.60;99.90;13.40;93201.00;;;;7395494;19;20479;-76
2023/07/25 01:44:52;;;;;;;8.93;4.55;;;12.60;99.90;13.50;93198.00;;;;7394057;19;20211;-76
2023/07/25 01:47:25;;;;;;;8.18;4.80;;;12.60;99.90;13.50;93181.00;;;;7391641;19;20619;-76
2023/07/25 01:49:59;;;;;;;6.68;5.07;;;12.60;99.90;13.40;93172.00;;;;7396164;19;20136;-77
2023/07/25 01:52:34;;;;;;;7.10;4.80;;;12.50;99.90;13.30;93183.00;;;;7394164;19;20158;-77
2023/07/25 01:55:11;;;;;;;9.38;4.82;;;12.40;99.90;13.20;93186.00;;;;7393564;19;20849;-78
2023/07/25 01:57:38;;;;;;;7.80;4.80;;;12.40;99.90;13.30;93187.00;;;;7395824;19;20128;-78
2023/07/25 02:00:12;;;;;;;9.02;5.25;;;12.40;99.90;13.30;93156.00;;;;7400304;19;20604;-78
2023/07/25 02:02:40;;;;;;;12.45;5.28;;;12.40;99.90;13.30;93182.00;;;;7398551;19;20251;-78
2023/07/25 02:05:15;;;;;;;9.25;5.28;;;12.40;99.90;13.20;93178.00;;;;7401656;19;20140;-78
2023/07/25 02:07:43;;;;;;;8.02;4.28;;;12.40;99.90;13.30;93181.00;;;;7399099;19;20128;-76
2023/07/25 02:10:20;;;;;;;5.65;4.45;;;12.40;99.90;13.50;93181.00;;;;7399537;19;20148;-76
2023/07/25 02:12:57;;;;;;;7.68;5.03;;;12.50;99.90;13.40;93155.00;;;;7399303;19;20173;-77
2023/07/25 02:15:31;;;;;;;6.82;5.20;;;12.60;99.90;13.50;93163.00;;;;7403346;19;20452;-75
2023/07/25 02:17:59;;;;;;;8.80;5.82;;;12.70;99.90;13.50;93187.00;;;;7400279;19;20153;-77
2023/07/25 02:20:33;;;;;;;9.38;4.97;;;12.70;99.90;13.50;93174.00;;;;7399904;19;20148;-77
2023/07/25 02:23:09;;;;;;;7.85;5.25;;;12.70;99.90;13.60;93159.00;;;;7401591;19;20486;-76
2023/07/25 02:25:42;;;;;;;8.60;5.05;;;12.70;99.90;13.60;93151.00;;;;7401974;19;20151;-77
2023/07/25 02:28:16;;;;;;;8.60;5.13;;;12.70;99.90;13.60;93152.00;;;;7396048;19;20162;-77
2023/07/25 02:30:50;;;;;;;13.07;5.28;;;12.70;99.90;13.50;93142.00;;;;7401164;19;20151;-76
2023/07/25 02:33:18;;;;;;;5.93;4.70;;;12.60;99.90;13.60;93168.00;;;;7400190;19;20137;-76
2023/07/25 02:35:51;;;;;;;5.85;4.20;;;12.50;99.90;13.50;93097.00;;;;7400904;19;20133;-76
2023/07/25 02:38:19;;;;;;;7.07;4.00;;;12.60;99.90;13.50;93155.00;;;;7398810;19;20159;-77
2023/07/25 02:40:52;;;;;;;8.20;4.35;;;12.60;99.90;13.50;93119.00;;;;7400367;19;20163;-75
2023/07/25 02:43:28;;;;;;;6.00;4.03;;;12.50;99.90;13.40;93108.00;;;;7401038;19;20616;-75
2023/07/25 02:46:02;;;;;;;9.75;4.07;;;12.50;1.00;13.30;93156.00;;;;7399816;19;20173;-78
2023/07/25 02:48:36;;;;;;;8.35;4.00;;;12.40;1.00;13.30;93083.00;;;;7399439;19;20161;-76
2023/07/25 02:51:10;;;;;;;7.68;4.25;;;12.40;1.00;13.30;93145.00;;;;7398491;19;20132;-77
2023/07/25 02:53:44;;;;;;;7.10;4.15;;;12.30;1.00;13.30;93144.00;;;;7400045;19;20178;-76
2023/07/25 02:56:20;;;;;;;6.20;4.15;;;12.30;1.00;13.30;93089.00;;;;7398962;19;20212;-77
2023/07/25 02:58:53;;;;;;;14.15;4.25;;;12.30;1.00;13.30;93123.00;;;;7401971;19;20306;-76
2023/07/25 03:01:27;;;;;;;4.97;4.00;;;12.40;1.00;13.40;93130.00;;;;7397563;19;20176;-77
2023/07/25 03:03:55;;;;;;;5.88;4.20;;;12.40;1.00;13.60;93147.00;;;;7396142;19;20152;-78
2023/07/25 03:06:29;;;;;;;11.98;6.05;;;12.60;1.00;13.80;93119.00;;;;7398675;19;20145;-75
2023/07/25 03:09:04;;;;;;;7.65;5.65;;;12.70;99.90;13.70;93132.00;;;;7398142;19;20224;-76
2023/07/25 03:11:32;;;;;;;9.68;6.20;;;12.80;99.90;13.70;93127.00;;;;7397435;19;20157;-77
2023/07/25 03:14:00;;;;;;;11.73;6.10;;;12.90;99.90;13.80;93078.00;;;;7396915;19;20167;-75
2023/07/25 03:16:34;;;;;;;11.35;7.18;;;13.00;99.90;13.80;93124.00;;;;7396740;19;20610;-77
2023/07/25 03:19:03;;;;;;;8.18;6.05;;;13.00;99.90;13.90;93061.00;;;;7398121;19;20159;-74
2023/07/25 03:21:37;;;;;;;11.57;6.10;;;12.90;1.00;13.80;93101.00;;;;7401102;19;20599;-82
2023/07/25 03:24:11;;;;;;;8.48;5.70;;;12.90;1.00;13.70;93112.00;;;;7398704;19;20140;-75
2023/07/25 03:26:38;;;;;;;7.63;5.90;;;12.90;1.00;13.70;93102.00;;;;7397290;19;20231;-77
2023/07/25 03:29:12;;;;;;;10.10;5.80;;;12.80;1.00;13.70;93116.00;;;;7400230;19;20147;-77
2023/07/25 03:31:40;;;;;;;8.75;6.45;;;12.80;1.00;13.60;93088.00;;;;7397877;19;20154;-77
2023/07/25 03:34:13;;;;;;;9.10;6.15;;;12.70;1.00;13.70;93057.00;;;;7398085;19;20508;-76
2023/07/25 03:36:47;;;;;;;9.18;5.75;;;12.70;1.00;13.60;93120.00;;;;7399585;19;20144;-77
2023/07/25 03:39:22;;;;;;;10.18;5.38;;;12.70;1.00;13.60;93115.00;;;;7397898;19;20143;-75
2023/07/25 03:41:56;;;;;;;9.48;4.80;;;12.60;1.00;13.60;93114.00;;;;7400214;19;20128;-75
2023/07/25 03:44:30;;;;;;;7.82;4.70;;;12.60;1.00;13.60;93065.00;;;;7398597;19;20196;-76
2023/07/25 03:47:00;;;;;;;6.13;4.43;;;12.60;1.00;13.60;93106.00;;;;7398715;19;20216;-77
2023/07/25 03:49:33;;;;;;;9.32;4.57;;;12.60;1.00;13.50;93113.00;;;;7398935;19;20133;-77
2023/07/25 03:52:02;;;;;;;4.85;3.92;;;12.60;1.00;13.60;93104.00;;;;7397285;19;20208;-76
2023/07/25 03:54:35;;;;;;;7.85;4.35;;;12.60;1.00;13.50;93090.00;;;;7396623;19;20133;-80
2023/07/25 03:57:16;;;;;;;7.88;4.38;;;12.60;1.00;13.60;93089.00;;;;7400098;19;20163;-76
2023/07/25 03:59:50;;;;;;;8.77;4.10;;;12.60;1.00;13.50;93102.00;;;;7397057;19;20473;-76
2023/07/25 04:02:17;;;;;;;7.35;4.20;;;12.60;1.00;13.60;93091.00;;;;7394318;19;20141;-75
2023/07/25 04:04:52;;;;;;;6.55;4.20;;;12.60;1.00;13.60;93109.00;;;;7399058;19;20136;-79
2023/07/25 04:07:25;;;;;;;4.13;3.65;;;12.60;1.00;13.70;93105.00;;;;7394678;19;20148;-77
2023/07/25 04:10:02;;;;;;;5.75;3.67;;;12.60;1.00;13.60;93064.00;;;;7396597;19;20157;-76
2023/07/25 04:12:40;;;;;;;5.50;4.03;;;12.60;1.00;13.70;93065.00;;;;7398038;19;20133;-77
2023/07/25 04:15:20;;;;;;;5.05;4.07;;;12.60;1.00;13.70;93101.00;;;;7396557;19;20140;-76
2023/07/25 04:17:54;;;;;;;5.78;4.05;;;12.60;1.00;13.60;93082.00;;;;7395781;19;20208;-77
2023/07/25 04:20:22;;;;;;;5.07;3.58;;;12.60;1.00;13.70;93113.00;;;;7395915;19;20148;-77
2023/07/25 04:22:56;;;;;;;6.80;4.40;;;12.60;1.00;13.70;93060.00;;;;7393780;19;20137;-81
2023/07/25 04:25:26;;;;;;;5.00;3.63;;;12.60;1.00;13.60;93109.00;;;;7395527;19;20596;-77
2023/07/25 04:28:01;;;;;;;5.22;3.67;;;12.60;1.00;13.60;93117.00;;;;7394918;19;20603;-77
2023/07/25 04:30:35;;;;;;;4.47;3.33;;;12.60;1.00;13.60;93089.00;;;;7397535;19;20624;-77
2023/07/25 04:33:09;;;;;;;5.68;3.30;;;12.60;1.00;13.60;93116.00;;;;7398248;19;20200;-78
2023/07/25 04:35:38;;;;;;;5.13;3.83;;;12.60;1.00;13.60;93120.00;;;;7393724;19;20158;-78
2023/07/25 04:38:13;;;;;;;4.78;3.70;;;12.60;1.00;13.60;93133.00;;;;7397347;19;20141;-76
2023/07/25 04:40:47;;;;;;;5.80;3.70;;;12.60;1.00;13.70;93103.00;;;;7394746;19;20233;-77
2023/07/25 04:43:21;;;;;;;8.93;3.60;;;12.60;1.00;13.60;93117.00;;;;7396819;19;20478;-78
2023/07/25 04:45:48;;;;;;;4.40;3.10;;;12.60;1.00;13.70;93101.00;;;;7393636;19;20157;-75
2023/07/25 04:48:21;;;;;;;4.07;3.25;;;12.70;1.00;13.60;93123.00;;;;7393117;19;20137;-77
2023/07/25 04:50:55;;;;;;;5.22;3.30;;;12.70;1.00;13.80;93130.00;;;;7395214;19;20141;-77
2023/07/25 04:53:22;;;;;;;8.73;3.85;;;12.70;1.00;13.80;93130.00;;;;7397142;19;20156;-76
2023/07/25 04:55:56;;;;;;;4.63;3.40;;;12.70;1.00;13.60;93113.00;;;;7394894;19;20463;-80
2023/07/25 04:58:23;;;;;;;5.60;3.33;;;12.70;1.00;13.70;93135.00;;;;7393430;19;20544;-76
2023/07/25 05:00:57;;;;;;;4.93;3.40;;;12.70;1.00;13.70;93087.00;;;;7393562;19;20236;-76
2023/07/25 05:03:31;;;;;;;3.70;2.70;;;12.70;1.00;13.80;93146.00;;;;7396255;19;20275;-77
2023/07/25 05:06:05;;;;;;;5.18;3.08;;;12.70;1.00;13.70;93145.00;;;;7396664;19;20133;-77
2023/07/25 05:08:34;;;;;;;3.67;3.13;;;12.70;1.00;13.90;93109.00;;;;7394572;19;20144;-76
2023/07/25 05:11:02;;;;;;;4.57;2.70;;;12.70;1.00;13.80;93134.00;;;;7395231;19;20133;-77
2023/07/25 05:13:42;;;;;;;3.65;3.13;;;12.80;1.00;13.80;93135.00;;;;7390435;19;20144;-77
2023/07/25 05:16:10;;;;;;;4.95;3.03;;;12.80;1.00;13.80;93086.00;;;;7393831;19;20178;-79
2023/07/25 05:18:45;;;;;;;4.38;2.88;;;12.90;1.00;13.90;93140.00;;;;7393681;19;20144;-78
2023/07/25 05:21:21;;;;;;;3.53;2.70;;;12.80;1.00;13.90;93104.00;;;;7396806;19;20140;-77
2023/07/25 05:23:55;;;;;;;5.68;2.72;;;12.80;1.00;13.80;93133.00;;;;7396894;19;20988;-77
2023/07/25 05:26:22;;;;;;;3.10;2.63;;;12.80;1.00;13.90;93146.00;;;;7394195;19;20208;-80
2023/07/25 05:28:56;;;;;;;4.65;2.78;;;12.80;1.00;13.80;93129.00;;;;7394753;19;20476;-79
2023/07/25 05:31:23;;;;;;;3.95;2.83;;;12.80;1.00;13.70;93134.00;;;;7393537;19;20137;-79
2023/07/25 05:33:51;;;;;;;3.88;2.70;;;12.80;1.00;13.70;93125.00;;;;7392044;19;20128;-78
2023/07/25 05:36:24;;;;;;;5.85;2.85;;;12.90;1.00;13.80;93092.00;;;;7394618;19;20200;-79
2023/07/25 05:38:52;;;;;;;4.72;2.67;;;12.90;1.00;13.90;93133.00;;;;7396193;19;20469;-79
2023/07/25 05:41:20;;;;;;;3.78;2.78;;;12.90;1.00;14.00;93133.00;;;;7391895;19;20152;-80
2023/07/25 05:43:54;;;;;;;5.03;2.72;;;12.90;1.00;14.00;93123.00;;;;7394786;19;20647;-81
2023/07/25 05:46:28;;;;;;;2.92;2.60;;;13.00;1.00;14.00;93107.00;;;;7393826;19;20151;-80
2023/07/25 05:49:02;;;;;;;4.47;2.67;;;13.10;1.00;13.90;93143.00;;;;7391407;19;20215;-79
2023/07/25 05:51:36;;;;;;;4.20;2.72;;;13.10;1.00;14.10;93110.00;;;;7393115;19;20703;-76
2023/07/25 05:54:03;;;;;;;4.60;2.55;;;13.20;1.00;14.10;93109.00;;;;7394193;19;20142;-76
2023/07/25 05:56:37;;;;;;;4.15;2.55;;;13.20;1.00;14.10;93142.00;;;;7394618;19;20469;-77
2023/07/25 05:59:04;;;;;;;5.10;2.28;;;13.20;1.00;14.20;93112.00;;;;7393629;19;20612;-78
2023/07/25 06:01:39;;;;;;;3.28;2.47;;;13.20;1.00;14.30;93135.00;;;;7392592;19;20189;-78
2023/07/25 06:04:15;;;;;;;2.90;2.40;;;13.20;1.00;14.30;93138.00;;;;7394927;19;20129;-80
2023/07/25 06:06:49;;;;;;;5.65;2.20;;;13.30;1.00;14.30;93154.00;;;;7392489;19;20195;-76
2023/07/25 06:09:16;;;;;;;6.53;2.30;;;13.30;1.00;14.20;93138.00;;;;7391135;19;20125;-78
2023/07/25 06:11:50;;;;;;;10.05;2.70;;;13.20;1.00;14.10;93165.00;;;;7391445;19;20156;-76
2023/07/25 06:14:24;;;;;;;3.72;2.85;;;13.20;1.00;14.00;93115.00;;;;7394298;19;20229;-84
2023/07/25 06:17:07;;;;;;;4.55;2.60;;;13.20;1.00;13.90;93106.00;;;;7398288;19;20132;-85
2023/07/25 06:19:45;;;;;;;4.40;1.90;;;13.20;1.00;13.60;93072.00;;;;7395889;19;20178;-81
2023/07/25 06:22:15;;;;;;;2.30;2.10;;;13.10;1.00;13.60;93127.00;;;;7396350;19;20133;-88
2023/07/25 06:25:26;;;;;;;3.65;2.17;;;13.00;1.00;13.50;93167.00;;;;7385316;19;20148;-82
2023/07/25 06:28:48;;;;;;;;;;;;;;;;;;;;;
2023/07/25 06:32:05;;;;;;;5.75;1.85;;;12.90;99.90;13.20;93061.00;;;;7390019;19;20192;-84
2023/07/25 06:40:23;;;;;;;3.95;1.80;;;12.90;1.00;13.30;93128.00;;;;7389952;19;20159;-86
2023/07/25 06:43:51;;;;;;;1.90;1.70;;;13.00;1.00;13.70;92999.00;;;;7390586;19;20215;-84
2023/07/25 06:47:51;;;;;;;4.88;2.00;;;13.10;1.00;13.60;93070.00;;;;7399415;19;20152;-85
2023/07/25 06:50:43;;;;;;;4.32;2.05;;;13.30;1.00;14.30;93127.00;;;;7398789;19;20637;-84
2023/07/25 06:53:10;;;;;;;1.80;1.70;;;13.50;1.00;14.30;93066.00;;;;7397281;19;20140;-83
2023/07/25 06:55:47;;;;;;;4.35;1.70;;;13.70;1.00;14.00;92982.00;;;;7401330;19;20196;-84
2023/07/25 06:58:26;;;;;;;3.42;2.00;;;13.70;1.00;14.50;92970.00;;;;7399904;19;20490;-85
2023/07/25 07:01:03;;;;;;;2.83;1.90;;;13.80;1.00;14.80;92966.00;;;;7400388;19;20731;-84
2023/07/25 07:03:31;;;;;;;9.35;2.10;;;13.90;7.40;15.10;92986.00;;;;7402465;19;20148;-81
2023/07/25 07:06:05;;;;;;;2.45;1.88;;;14.10;19.80;15.20;93045.00;;;;7397977;19;20129;-81
2023/07/25 07:08:32;;;;;;;4.28;2.15;;;14.30;46.00;15.20;93081.00;;;;7398402;19;20144;-83
2023/07/25 07:11:00;;;;;;;5.97;2.30;;;14.50;52.50;14.90;93067.00;;;;7398564;19;20676;-84
2023/07/25 07:13:37;;;;;;;4.30;2.00;;;14.30;1.00;14.90;93018.00;;;;7400562;19;20172;-82
2023/07/25 07:16:20;;;;;;;5.40;2.08;;;14.20;52.60;14.50;93057.00;;;;7396115;19;20226;-83
2023/07/25 07:18:53;;;;;;;6.82;2.45;;;14.10;1.00;14.70;93075.00;;;;7391974;19;20529;-80
2023/07/25 07:21:27;;;;;;;4.03;1.83;;;14.10;1.00;14.90;93074.00;;;;7390230;19;20129;-82
2023/07/25 07:24:02;;;;;;;3.58;2.13;;;14.10;1.00;15.20;93078.00;;;;7393328;19;20147;-80
2023/07/25 07:26:37;;;;;;;4.45;2.28;;;14.40;1.00;15.50;93046.00;;;;7391397;19;20499;-83
2023/07/25 07:29:11;;;;;;;4.85;2.40;;;14.60;1.00;15.50;93040.00;;;;7388601;19;20204;-78
2023/07/25 07:31:47;;;;;;;4.88;2.45;;;14.80;99.90;15.80;93045.00;;;;7389189;19;20456;-78
2023/07/25 07:34:18;;;;;;;2.78;2.10;;;15.10;1.00;15.80;93059.00;;;;7387345;19;20145;-79
2023/07/25 07:36:52;;;;;;;3.30;2.20;;;15.20;1.00;16.10;93052.00;;;;7387258;19;20161;-78
2023/07/25 07:39:19;;;;;;;2.92;1.90;;;15.40;99.90;16.20;93061.00;;;;7386792;19;20156;-79
2023/07/25 07:41:55;;;;;;;5.45;2.20;;;15.60;1.00;16.30;93043.00;;;;7385206;19;20651;-78
2023/07/25 07:44:28;;;;;;;4.60;2.20;;;15.90;13.10;16.60;93056.00;;;;7389700;19;20128;-78
2023/07/25 07:46:58;;;;;;;5.25;2.40;;;16.20;99.90;16.70;93064.00;;;;7388040;19;20592;-78
2023/07/25 07:49:34;;;;;;;4.30;1.80;;;16.20;99.90;16.40;92964.00;;;;7386434;19;20149;-77
2023/07/25 07:52:09;;;;;;;5.95;1.77;;;16.30;99.90;16.50;93056.00;;;;7384593;19;20144;-79
2023/07/25 07:55:04;;;;;;;3.78;1.95;;;16.40;99.90;16.30;93074.00;;;;7387848;19;20681;-77
2023/07/25 07:57:48;;;;;;;3.42;1.65;;;16.40;1.00;16.60;93060.00;;;;7385658;19;20196;-78
2023/07/25 08:00:23;;;;;;;4.80;2.10;;;16.40;51.80;16.70;93069.00;;;;7388082;19;20133;-77
2023/07/25 08:03:00;;;;;;;4.32;1.80;;;16.40;47.00;16.40;93055.00;;;;7387579;19;20153;-79
2023/07/25 08:05:30;;;;;;;3.47;1.85;;;16.40;1.00;16.20;93059.00;;;;7386239;19;20177;-79
2023/07/25 08:08:04;;;;;;;5.97;2.10;;;16.30;1.00;16.20;93069.00;;;;7389768;19;20136;-77
2023/07/25 08:10:31;;;;;;;5.13;2.03;;;16.20;1.00;16.20;93066.00;;;;7385143;19;20496;-79
2023/07/25 08:13:12;;;;;;;6.93;2.03;;;16.10;1.00;15.90;93099.00;;;;7384428;19;20153;-77
2023/07/25 08:15:49;;;;;;;1.95;1.63;;;16.00;1.00;16.00;93080.00;;;;7382887;19;20136;-77
2023/07/25 08:18:24;;;;;;;2.30;1.83;;;16.10;1.00;16.10;93025.00;;;;7384097;19;20577;-77
2023/07/25 08:20:59;;;;;;;4.18;2.20;;;16.10;1.00;16.00;93087.00;;;;7387046;19;20477;-79
2023/07/25 08:23:33;;;;;;;2.70;1.75;;;16.10;1.00;16.10;93094.00;;;;7382133;19;20510;-78
2023/07/25 08:26:07;;;;;;;4.82;1.70;;;16.10;1.00;15.90;93075.00;;;;7386287;19;20488;-79
2023/07/25 08:28:43;;;;;;;4.40;1.90;;;16.20;99.90;16.00;93078.00;;;;7387114;19;20154;-78
2023/07/25 08:31:10;;;;;;;3.85;1.58;;;16.10;99.90;16.10;93057.00;;;;7386520;19;20318;-78
2023/07/25 08:33:45;;;;;;;6.32;1.83;;;16.10;99.90;16.20;93081.00;;;;7385778;19;20124;-77
2023/07/25 08:36:12;;;;;;;3.65;1.73;;;16.10;99.90;15.90;93085.00;;;;7385089;19;20169;-79
2023/07/25 08:38:46;;;;;;;2.35;1.40;;;16.10;1.00;15.90;93090.00;;;;7383094;19;20147;-80
2023/07/25 08:41:18;;;;;;;3.13;1.65;;;16.10;40.30;16.10;93085.00;;;;7385802;19;20128;-76
2023/07/25 08:43:54;;;;;;;4.10;1.77;;;16.10;1.00;16.10;93048.00;;;;7385491;19;20503;-78
2023/07/25 08:46:30;;;;;;;4.00;2.20;;;16.10;1.00;16.30;93075.00;;;;7385306;19;20141;-76
2023/07/25 08:49:10;;;;;;;5.05;1.60;;;16.10;1.00;16.40;93065.00;;;;7385380;19;20580;-78
2023/07/25 08:51:42;;;;;;;1.90;1.50;;;16.20;1.00;16.80;93069.00;;;;7385441;19;20607;-77
2023/07/25 08:54:29;;;;;;;2.78;1.67;;;16.30;1.00;16.70;93057.00;;;;7383920;19;20247;-79
2023/07/25 08:57:04;;;;;;;4.80;2.00;;;16.50;99.90;16.80;93028.00;;;;7386506;19;20149;-79
2023/07/25 08:59:41;;;;;;;3.40;1.80;;;16.50;1.00;16.90;93035.00;;;;7387003;19;20152;-75
2023/07/25 09:02:16;;;;;;;3.70;2.30;;;16.60;1.00;16.80;93050.00;;;;7384996;19;20603;-76
2023/07/25 09:04:52;;;;;;;3.08;2.00;;;16.60;1.00;16.70;93057.00;;;;7387611;19;20629;-81
2023/07/25 09:07:23;;;;;;;3.65;1.70;;;16.60;99.90;17.20;93053.00;;;;7383754;19;20151;-80
2023/07/25 09:09:51;;;;;;;3.92;1.52;;;16.60;1.00;17.60;93042.00;;;;7383211;19;20220;-80
2023/07/25 09:12:25;;;;;;;3.17;1.65;;;16.90;1.00;17.70;93002.00;;;;7384916;19;20496;-77
2023/07/25 09:15:00;;;;;;;3.80;1.80;;;17.10;99.90;17.60;93059.00;;;;7383171;19;20192;-76
2023/07/25 09:17:35;;;;;;;2.78;1.80;;;17.10;99.90;17.40;93038.00;;;;7386040;19;20147;-75
2023/07/25 09:20:12;;;;;;;4.05;1.98;;;17.00;99.90;17.60;93072.00;;;;7387048;19;20169;-76
2023/07/25 09:22:45;;;;;;;2.25;1.60;;;17.00;99.90;17.40;93046.00;;;;7382805;19;20169;-82
2023/07/25 09:25:20;;;;;;;2.78;1.58;;;16.90;99.90;17.30;93065.00;;;;7385791;19;20597;-77
2023/07/25 09:27:54;;;;;;;2.30;1.67;;;16.90;86.90;17.70;93024.00;;;;7388365;19;20200;-79
2023/07/25 09:30:29;;;;;;;2.35;1.55;;;17.10;1.00;18.50;92990.00;;;;7388147;19;20145;-81
2023/07/25 09:32:56;;;;;;;1.65;1.50;;;17.50;24.30;19.20;93032.00;;;;7383737;19;20129;-82
2023/07/25 09:35:34;;;;;;;3.42;1.50;;;;;19.60;93027.00;;;;7385557;19;20644;-77
2023/07/25 09:38:08;;;;;;;3.63;1.85;;;;;19.40;93042.00;;;;7385474;19;20140;-78
2023/07/25 09:40:44;;;;;;;2.08;1.60;;;;;19.80;93033.00;;;;7385507;19;20588;-77
2023/07/25 09:43:26;;;;;;;2.45;1.60;;;;;19.50;93040.00;;;;7385449;19;20453;-81
2023/07/25 09:46:00;;;;;;;3.13;1.30;;;;;19.10;93052.00;;;;7383026;19;20145;-79
2023/07/25 09:48:35;;;;;;;3.92;1.70;;;;;18.80;93064.00;;;;7383350;19;20132;-76
2023/07/25 09:51:11;;;;;;;2.58;1.50;;;;;18.50;93072.00;;;;7382075;19;20144;-73
2023/07/25 09:53:51;;;;;;;3.17;1.58;;;;;18.50;93056.00;;;;7386076;19;20128;-75
2023/07/25 09:56:26;;;;;;;2.10;1.50;;;;;19.10;93046.00;;;;7384306;19;20625;-74
2023/07/25 09:58:54;;;;;;;2.33;1.35;;;;;19.30;93041.00;;;;7384476;19;20140;-75
2023/07/25 10:01:35;;;;;;;1.70;1.30;;;;;19.30;93053.00;;;;7384507;19;20592;-76
2023/07/25 10:04:04;;;;;;;1.80;1.30;;;;;19.20;93057.00;;;;7383708;19;20518;-75
2023/07/25 10:06:41;;;;;;;2.67;1.25;;;;;18.90;93067.00;;;;7383936;19;20646;-77
2023/07/25 10:09:10;;;;;;;1.50;1.10;;;;;18.50;93069.00;;;;7382084;19;20140;-73
2023/07/25 10:11:46;;;;;;;1.95;1.10;;;;;18.30;93080.00;;;;7379577;19;20125;-75
2023/07/25 10:14:27;;;;;;;1.55;1.23;;;;;17.90;93096.00;;;;7385249;19;20160;-74
2023/07/25 10:17:08;;;;;;;1.23;1.00;;;;;17.80;93088.00;;;;7381706;19;20121;-75
2023/07/25 10:19:54;;;;;;;2.10;1.40;;;;;17.90;93085.00;;;;7381393;19;20139;-76
2023/07/25 10:22:40;;;;;;;4.95;1.30;;;;;17.80;93089.00;;;;7387428;19;20592;-75
2023/07/25 10:25:28;;;;;;;1.95;1.20;;;;;17.90;93083.00;;;;7387285;19;20524;-75
2023/07/25 10:28:03;;;;;;;1.95;1.05;;;;;18.10;93077.00;;;;7386612;19;20129;-76
2023/07/25 10:30:45;;;;;;;1.80;1.30;;;;;18.50;93077.00;;;;7390902;19;20124;-74
2023/07/25 10:33:14;;;;;;;1.75;1.10;;;;;18.80;93064.00;;;;7386283;19;20184;-75
2023/07/25 10:35:58;;;;;;;1.45;1.10;;;;;19.10;93072.00;;;;7388030;19;20187;-75
2023/07/25 10:38:40;;;;;;;1.98;1.00;;;;;20.10;93048.00;;;;7388816;19;20627;-73
2023/07/25 10:41:18;;;;;;;1.67;1.23;;;;;20.80;93031.00;;;;7389989;19;20584;-75
2023/07/25 10:43:48;;;;;;;1.50;1.40;;;;;21.30;93047.00;;;;7388671;19;20200;-72
2023/07/25 10:46:29;;;;;;;2.33;1.25;;;;;20.80;93066.00;;;;7383829;19;20167;-73
2023/07/25 10:49:03;;;;;;;3.08;1.05;;;;;19.70;93075.00;;;;7387361;19;20490;-74
2023/07/25 10:51:50;;;;;;;1.13;0.90;;;;;18.80;93064.00;;;;7388623;19;20148;-75
2023/07/25 10:54:23;;;;;;;1.35;1.13;;;;;18.70;93075.00;;;;7389372;19;20694;-72
2023/07/25 10:57:14;;;;;;;1.25;0.93;;;;;18.80;93083.00;;;;7387645;19;20169;-73
2023/07/25 11:00:04;;;;;;;1.38;0.88;;;;;18.60;93084.00;;;;7388381;19;20149;-79
2023/07/25 11:02:42;;;;;;;2.28;1.10;;;;;18.90;93084.00;;;;7386418;19;20179;-77
2023/07/25 11:05:13;;;;;;;3.08;1.25;;;;;19.10;93079.00;;;;7386682;19;20156;-80
2023/07/25 11:07:50;;;;;;;2.58;1.15;;;;;18.70;93079.00;;;;7387948;19;20227;-79
2023/07/25 11:10:23;;;;;;;2.10;1.35;;;;;19.20;93067.00;;;;7384855;19;20122;-79
2023/07/25 11:13:01;;;;;;;3.28;1.38;;;;;19.60;93051.00;;;;7383884;19;21332;-78
2023/07/25 11:15:35;;;;;;;1.42;1.00;;;;;20.20;93035.00;;;;7384802;19;20202;-78
2023/07/25 11:18:14;;;;;;;1.35;1.08;;;;;20.20;93048.00;;;;7387672;19;20144;-79
2023/07/25 11:21:05;;;;;;;1.85;1.02;;;;;20.10;93059.00;;;;7380893;19;20616;-75
2023/07/25 11:23:41;;;;;;;1.35;1.17;;;;;20.10;93083.00;;;;7384534;19;20125;-78
2023/07/25 11:26:18;;;;;;;3.05;1.30;;;;;19.20;93120.00;;;;7382154;19;20143;-77
2023/07/25 11:28:52;;;;;;;0.88;0.80;;;;;17.60;93136.00;;;;7384997;19;20176;-77
2023/07/25 11:31:26;;;;;;;1.17;0.90;;;;;16.50;93144.00;;;;7386258;19;20588;-75
2023/07/25 11:33:54;;;;;;;1.35;1.02;;;;;15.60;93155.00;;;;7383988;19;20215;-77
2023/07/25 11:36:28;;;;;;;2.35;1.00;;;;;15.20;93161.00;;;;7386665;19;20157;-81
2023/07/25 11:39:01;;;;;;;1.63;1.15;;;;;14.30;93174.00;;;;7389555;19;20489;-84
2023/07/25 11:41:43;;;;;;;1.10;1.00;;;;;13.20;93190.00;;;;7387704;19;20144;-78
2023/07/25 11:44:13;;;;;;;6.20;1.08;;;;;13.10;93160.00;;;;7389823;19;20161;-79
2023/07/25 11:46:51;;;;;;;1.30;1.20;;;;;12.90;93176.00;;;;7388290;19;20152;-77
2023/07/25 11:49:26;;;;;;;1.55;1.10;;;;;12.80;93178.00;;;;7388936;19;20165;-81
2023/07/25 11:52:14;;;;;;;2.78;1.20;;;;;13.00;93171.00;;;;7391088;19;20142;-82
2023/07/25 11:54:48;;;;;;;2.53;1.40;;;;;12.90;93176.00;;;;7392054;19;20125;-79